Strona główna
METAR-TAF:

METAR-TAF

Lotnisko :

Port lotniczy Caracas

Caracas, Wenezuela

Szerokość geograficzna: 10-36N, Długość geograficzna: 066-59W, wysokość: 43 m

Aktualna obserwacja pogody

Raport powstał 49 minut temu, godzina 22:00 UTC
Wiatr 6 kt od wschód
Temperatura 27°C
Wilgotność 84%
Ciśnienie 1008 hPa
Widzialność 10 km lub więcej
Przerywane chmury na wysokości 1600 ft

METAR: SVMI 212200Z 09006KT 9999 BKN016 27/24 Q1008

czas: 18:49 (22:49 UTC)

Prognoza

Raport powstał 6 godziny i 49 minut temu, godzina 16:00 UTC
Prognoza ważna od 21 godzina 18 UTC do 22 godzina 18 UTC
Wiatr 4 kt od wschód
Widzialność 10 km lub więcej
Przerywane chmury na wysokości 1600 ft
Stopniowe zmiany
od 21 godzina 18 UTC do 21 godzina 22 UTC
Wiatr 5 kt od wschód
Rozproszone chmury na wysokości 1600 ft

TAF: SVMI 211600Z 2118/2218 09004KT 9999 BKN016 TX31/19Z TN23/09Z BECMG 2118/2122 09005KT SCT016

Obserwacja i prognoza pogody dla ponad 4000 lotnisk (raport METAR i TAF).

Dostępne stacje oznaczono żółtymi i czerwonymi punktami na mapie.

Najedź kursorem aby zobaczyć nazwę stacji.

Kliknij aby zobaczyć obserwacje i prognozy pogody.

Aby zmienić mapę: kliknij na zielony przycisk z czarnym krzyżykiem, aby powiększyć; na zielony przycisk z myślnikiem, aby pomniejszyć; na zielone strzałki, aby przejść do map sąsiednich.


METAR-TAF: